sensor_id;sensor_type;location;lat;lon;timestamp;temperature;humidity
32322;DHT22;61553;48.994;8.940;2023-03-01T00:01:33;-1.10;99.90
32322;DHT22;61553;48.994;8.940;2023-03-01T00:03:59;-1.10;99.90
32322;DHT22;61553;48.994;8.940;2023-03-01T00:06:26;-1.10;99.90
32322;DHT22;61553;48.994;8.940;2023-03-01T00:08:52;-1.00;99.90
32322;DHT22;61553;48.994;8.940;2023-03-01T00:11:21;-1.00;99.90
32322;DHT22;61553;48.994;8.940;2023-03-01T00:13:48;-0.40;99.90
32322;DHT22;61553;48.994;8.940;2023-03-01T00:16:26;-1.10;99.90
32322;DHT22;61553;48.994;8.940;2023-03-01T00:18:51;-1.10;99.90
32322;DHT22;61553;48.994;8.940;2023-03-01T00:21:20;-1.10;99.90
32322;DHT22;61553;48.994;8.940;2023-03-01T00:23:47;-1.10;99.90
32322;DHT22;61553;48.994;8.940;2023-03-01T00:26:14;-1.10;99.90
32322;DHT22;61553;48.994;8.940;2023-03-01T00:28:41;-1.10;99.90
32322;DHT22;61553;48.994;8.940;2023-03-01T00:31:18;-1.00;99.90
32322;DHT22;61553;48.994;8.940;2023-03-01T00:33:45;-1.00;99.90
32322;DHT22;61553;48.994;8.940;2023-03-01T00:36:12;-1.00;99.90
32322;DHT22;61553;48.994;8.940;2023-03-01T00:38:40;-1.10;99.90
32322;DHT22;61553;48.994;8.940;2023-03-01T00:41:08;-1.20;99.90
32322;DHT22;61553;48.994;8.940;2023-03-01T00:43:34;-1.10;99.90
32322;DHT22;61553;48.994;8.940;2023-03-01T00:46:13;-1.20;99.90
32322;DHT22;61553;48.994;8.940;2023-03-01T00:48:39;-1.10;99.90
32322;DHT22;61553;48.994;8.940;2023-03-01T00:51:10;-1.00;99.90
32322;DHT22;61553;48.994;8.940;2023-03-01T00:53:37;-1.00;99.90
32322;DHT22;61553;48.994;8.940;2023-03-01T00:56:04;-1.10;99.90
32322;DHT22;61553;48.994;8.940;2023-03-01T00:58:30;-1.10;99.90
32322;DHT22;61553;48.994;8.940;2023-03-01T01:00:56;-0.40;99.90
32322;DHT22;61553;48.994;8.940;2023-03-01T01:03:22;-1.10;99.90
32322;DHT22;61553;48.994;8.940;2023-03-01T01:05:48;-1.20;99.90
32322;DHT22;61553;48.994;8.940;2023-03-01T01:08:14;-1.20;99.90
32322;DHT22;61553;48.994;8.940;2023-03-01T01:10:39;-1.20;99.90
32322;DHT22;61553;48.994;8.940;2023-03-01T01:13:05;-1.20;99.90
32322;DHT22;61553;48.994;8.940;2023-03-01T01:15:34;-1.20;99.90
32322;DHT22;61553;48.994;8.940;2023-03-01T01:18:00;-1.20;99.90
32322;DHT22;61553;48.994;8.940;2023-03-01T01:20:26;-1.20;99.90
32322;DHT22;61553;48.994;8.940;2023-03-01T01:22:52;-1.10;99.90
32322;DHT22;61553;48.994;8.940;2023-03-01T01:25:18;-1.10;99.90
32322;DHT22;61553;48.994;8.940;2023-03-01T01:27:44;-1.20;99.90
32322;DHT22;61553;48.994;8.940;2023-03-01T01:30:10;-1.20;99.90
32322;DHT22;61553;48.994;8.940;2023-03-01T01:32:36;-1.10;99.90
32322;DHT22;61553;48.994;8.940;2023-03-01T01:35:01;-1.10;99.90
32322;DHT22;61553;48.994;8.940;2023-03-01T01:37:27;-1.00;99.90
32322;DHT22;61553;48.994;8.940;2023-03-01T01:40:00;-1.10;99.90
32322;DHT22;61553;48.994;8.940;2023-03-01T01:42:27;-1.00;99.90
32322;DHT22;61553;48.994;8.940;2023-03-01T01:48:00;-1.10;99.90
32322;DHT22;61553;48.994;8.940;2023-03-01T01:50:28;-1.10;99.90
32322;DHT22;61553;48.994;8.940;2023-03-01T01:53:04;-1.10;99.90
32322;DHT22;61553;48.994;8.940;2023-03-01T01:55:31;-1.20;99.90
32322;DHT22;61553;48.994;8.940;2023-03-01T01:58:01;-1.30;99.90
32322;DHT22;61553;48.994;8.940;2023-03-01T02:00:29;-1.40;99.90
32322;DHT22;61553;48.994;8.940;2023-03-01T02:03:02;-1.50;99.90
32322;DHT22;61553;48.994;8.940;2023-03-01T02:08:09;-1.50;99.90
32322;DHT22;61553;48.994;8.940;2023-03-01T02:10:37;-1.60;99.90
32322;DHT22;61553;48.994;8.940;2023-03-01T02:13:03;-1.60;99.90
32322;DHT22;61553;48.994;8.940;2023-03-01T02:15:33;-1.50;99.90
32322;DHT22;61553;48.994;8.940;2023-03-01T02:17:59;-1.50;99.90
32322;DHT22;61553;48.994;8.940;2023-03-01T02:23:00;-1.50;99.90
32322;DHT22;61553;48.994;8.940;2023-03-01T02:25:52;-1.60;99.90
32322;DHT22;61553;48.994;8.940;2023-03-01T02:28:31;-1.70;99.90
32322;DHT22;61553;48.994;8.940;2023-03-01T02:30:56;-1.60;99.90
32322;DHT22;61553;48.994;8.940;2023-03-01T02:33:41;-1.70;99.90
32322;DHT22;61553;48.994;8.940;2023-03-01T02:36:15;-1.70;99.90
32322;DHT22;61553;48.994;8.940;2023-03-01T02:38:43;-1.80;99.90
32322;DHT22;61553;48.994;8.940;2023-03-01T02:41:11;-1.80;99.90
32322;DHT22;61553;48.994;8.940;2023-03-01T02:43:38;-2.00;99.90
32322;DHT22;61553;48.994;8.940;2023-03-01T02:46:17;-2.00;99.90
32322;DHT22;61553;48.994;8.940;2023-03-01T02:48:50;-2.10;99.90
32322;DHT22;61553;48.994;8.940;2023-03-01T02:54:18;-2.20;99.90
32322;DHT22;61553;48.994;8.940;2023-03-01T02:56:46;-2.40;99.90
32322;DHT22;61553;48.994;8.940;2023-03-01T02:59:19;-2.40;99.90
32322;DHT22;61553;48.994;8.940;2023-03-01T03:01:45;-2.50;99.90
32322;DHT22;61553;48.994;8.940;2023-03-01T03:04:15;-2.60;99.90
32322;DHT22;61553;48.994;8.940;2023-03-01T03:06:43;-2.60;99.90
32322;DHT22;61553;48.994;8.940;2023-03-01T03:09:09;-2.70;99.90
32322;DHT22;61553;48.994;8.940;2023-03-01T03:11:35;-2.80;99.90
32322;DHT22;61553;48.994;8.940;2023-03-01T03:14:02;-2.80;99.90
32322;DHT22;61553;48.994;8.940;2023-03-01T03:16:28;-2.90;99.90
32322;DHT22;61553;48.994;8.940;2023-03-01T03:18:55;-3.00;99.90
32322;DHT22;61553;48.994;8.940;2023-03-01T03:21:33;-3.00;99.90
32322;DHT22;61553;48.994;8.940;2023-03-01T03:23:59;-3.10;99.90
32322;DHT22;61553;48.994;8.940;2023-03-01T03:26:24;-3.00;99.90
32322;DHT22;61553;48.994;8.940;2023-03-01T03:28:50;-3.00;99.90
32322;DHT22;61553;48.994;8.940;2023-03-01T03:31:16;-3.10;99.90
32322;DHT22;61553;48.994;8.940;2023-03-01T03:33:42;-3.00;99.90
32322;DHT22;61553;48.994;8.940;2023-03-01T03:36:07;-3.10;99.90
32322;DHT22;61553;48.994;8.940;2023-03-01T03:38:39;-3.10;99.90
32322;DHT22;61553;48.994;8.940;2023-03-01T03:41:06;-3.10;99.90
32322;DHT22;61553;48.994;8.940;2023-03-01T03:43:36;-3.20;99.90
32322;DHT22;61553;48.994;8.940;2023-03-01T03:46:03;-3.20;99.90
32322;DHT22;61553;48.994;8.940;2023-03-01T03:48:34;-3.20;99.90
32322;DHT22;61553;48.994;8.940;2023-03-01T03:51:00;-3.10;99.90
32322;DHT22;61553;48.994;8.940;2023-03-01T03:53:27;-3.10;99.90
32322;DHT22;61553;48.994;8.940;2023-03-01T03:55:54;-3.10;99.90
32322;DHT22;61553;48.994;8.940;2023-03-01T03:58:22;-3.20;99.90
32322;DHT22;61553;48.994;8.940;2023-03-01T04:00:50;-3.20;99.90
32322;DHT22;61553;48.994;8.940;2023-03-01T04:03:18;-3.30;99.90
32322;DHT22;61553;48.994;8.940;2023-03-01T04:05:44;-3.30;99.90
32322;DHT22;61553;48.994;8.940;2023-03-01T04:08:10;-3.30;99.90
32322;DHT22;61553;48.994;8.940;2023-03-01T04:10:39;-3.40;99.90
32322;DHT22;61553;48.994;8.940;2023-03-01T04:13:08;-3.40;99.90
32322;DHT22;61553;48.994;8.940;2023-03-01T04:15:34;-3.50;99.90
32322;DHT22;61553;48.994;8.940;2023-03-01T04:18:01;-3.60;99.90
32322;DHT22;61553;48.994;8.940;2023-03-01T04:20:31;-3.70;99.90
32322;DHT22;61553;48.994;8.940;2023-03-01T04:23:10;-3.80;99.90
32322;DHT22;61553;48.994;8.940;2023-03-01T04:25:45;-3.90;99.90
32322;DHT22;61553;48.994;8.940;2023-03-01T04:28:11;-3.90;99.90
32322;DHT22;61553;48.994;8.940;2023-03-01T04:30:38;-3.90;99.90
32322;DHT22;61553;48.994;8.940;2023-03-01T04:33:08;-4.00;99.90
32322;DHT22;61553;48.994;8.940;2023-03-01T04:35:35;-4.00;99.90
32322;DHT22;61553;48.994;8.940;2023-03-01T04:38:01;-4.20;99.90
32322;DHT22;61553;48.994;8.940;2023-03-01T04:40:27;-4.10;99.90
32322;DHT22;61553;48.994;8.940;2023-03-01T04:42:52;-4.20;99.90
32322;DHT22;61553;48.994;8.940;2023-03-01T04:45:18;-4.20;99.90
32322;DHT22;61553;48.994;8.940;2023-03-01T04:47:45;-4.20;99.90
32322;DHT22;61553;48.994;8.940;2023-03-01T04:50:13;-4.20;99.90
32322;DHT22;61553;48.994;8.940;2023-03-01T04:52:39;-4.30;99.90
32322;DHT22;61553;48.994;8.940;2023-03-01T04:55:05;-4.30;99.90
32322;DHT22;61553;48.994;8.940;2023-03-01T04:57:31;-4.30;99.90
32322;DHT22;61553;48.994;8.940;2023-03-01T04:59:57;-4.30;99.90
32322;DHT22;61553;48.994;8.940;2023-03-01T05:02:23;-4.20;99.90
32322;DHT22;61553;48.994;8.940;2023-03-01T05:04:49;-4.30;99.90
32322;DHT22;61553;48.994;8.940;2023-03-01T05:07:14;-4.20;99.90
32322;DHT22;61553;48.994;8.940;2023-03-01T05:09:48;-4.20;99.90
32322;DHT22;61553;48.994;8.940;2023-03-01T05:12:14;-4.20;99.90
32322;DHT22;61553;48.994;8.940;2023-03-01T05:14:41;-4.20;99.90
32322;DHT22;61553;48.994;8.940;2023-03-01T05:17:07;-4.20;99.90
32322;DHT22;61553;48.994;8.940;2023-03-01T05:19:33;-4.20;99.90
32322;DHT22;61553;48.994;8.940;2023-03-01T05:21:59;-4.20;99.90
32322;DHT22;61553;48.994;8.940;2023-03-01T05:24:29;-4.00;99.90
32322;DHT22;61553;48.994;8.940;2023-03-01T05:26:54;-3.80;99.90
32322;DHT22;61553;48.994;8.940;2023-03-01T05:29:24;-3.60;99.90
32322;DHT22;61553;48.994;8.940;2023-03-01T05:31:55;-3.30;99.90
32322;DHT22;61553;48.994;8.940;2023-03-01T05:34:25;-3.20;99.90
32322;DHT22;61553;48.994;8.940;2023-03-01T05:36:52;-3.10;99.90
32322;DHT22;61553;48.994;8.940;2023-03-01T05:39:20;-3.00;99.90
32322;DHT22;61553;48.994;8.940;2023-03-01T05:41:53;-3.00;99.90
32322;DHT22;61553;48.994;8.940;2023-03-01T05:44:18;-2.90;99.90
32322;DHT22;61553;48.994;8.940;2023-03-01T05:46:44;-2.90;99.90
32322;DHT22;61553;48.994;8.940;2023-03-01T05:49:11;-2.90;99.90
32322;DHT22;61553;48.994;8.940;2023-03-01T05:51:39;-2.80;99.90
32322;DHT22;61553;48.994;8.940;2023-03-01T05:54:04;-2.00;99.90
32322;DHT22;61553;48.994;8.940;2023-03-01T05:56:35;-2.60;99.90
32322;DHT22;61553;48.994;8.940;2023-03-01T05:59:02;-2.70;99.90
32322;DHT22;61553;48.994;8.940;2023-03-01T06:01:28;-2.70;99.90
32322;DHT22;61553;48.994;8.940;2023-03-01T06:03:55;-2.70;99.90
32322;DHT22;61553;48.994;8.940;2023-03-01T06:06:22;-2.70;99.90
32322;DHT22;61553;48.994;8.940;2023-03-01T06:08:47;-2.70;99.90
32322;DHT22;61553;48.994;8.940;2023-03-01T06:11:13;-2.60;99.90
32322;DHT22;61553;48.994;8.940;2023-03-01T06:13:40;-2.40;99.90
32322;DHT22;61553;48.994;8.940;2023-03-01T06:16:06;-2.60;99.90
32322;DHT22;61553;48.994;8.940;2023-03-01T06:18:32;-2.60;99.90
32322;DHT22;61553;48.994;8.940;2023-03-01T06:20:58;-2.60;99.90
32322;DHT22;61553;48.994;8.940;2023-03-01T06:23:24;-2.50;99.90
32322;DHT22;61553;48.994;8.940;2023-03-01T06:25:50;-2.40;99.90
32322;DHT22;61553;48.994;8.940;2023-03-01T06:28:16;-2.40;99.90
32322;DHT22;61553;48.994;8.940;2023-03-01T06:30:41;-2.40;99.90
32322;DHT22;61553;48.994;8.940;2023-03-01T06:33:07;-2.40;99.90
32322;DHT22;61553;48.994;8.940;2023-03-01T06:35:33;-2.30;99.90
32322;DHT22;61553;48.994;8.940;2023-03-01T06:38:00;-2.30;99.90
32322;DHT22;61553;48.994;8.940;2023-03-01T06:40:27;-2.10;99.90
32322;DHT22;61553;48.994;8.940;2023-03-01T06:42:53;-2.10;99.90
32322;DHT22;61553;48.994;8.940;2023-03-01T06:45:20;-2.10;99.90
32322;DHT22;61553;48.994;8.940;2023-03-01T06:47:46;-2.20;99.90
32322;DHT22;61553;48.994;8.940;2023-03-01T06:50:13;-2.10;99.90
32322;DHT22;61553;48.994;8.940;2023-03-01T06:52:38;-2.10;99.90
32322;DHT22;61553;48.994;8.940;2023-03-01T06:55:05;-2.10;99.90
32322;DHT22;61553;48.994;8.940;2023-03-01T06:57:31;-2.00;99.90
32322;DHT22;61553;48.994;8.940;2023-03-01T06:59:56;-1.90;99.90
32322;DHT22;61553;48.994;8.940;2023-03-01T07:02:22;-1.70;99.90
32322;DHT22;61553;48.994;8.940;2023-03-01T07:04:51;-1.40;99.90
32322;DHT22;61553;48.994;8.940;2023-03-01T07:07:18;-0.20;99.90
32322;DHT22;61553;48.994;8.940;2023-03-01T07:09:44;-1.10;99.90
32322;DHT22;61553;48.994;8.940;2023-03-01T07:12:10;-0.90;99.90
32322;DHT22;61553;48.994;8.940;2023-03-01T07:14:36;-0.70;99.90
32322;DHT22;61553;48.994;8.940;2023-03-01T07:17:02;-0.70;99.90
32322;DHT22;61553;48.994;8.940;2023-03-01T07:19:27;-0.70;99.90
32322;DHT22;61553;48.994;8.940;2023-03-01T07:21:53;-0.60;99.90
32322;DHT22;61553;48.994;8.940;2023-03-01T07:24:19;-0.50;99.90
32322;DHT22;61553;48.994;8.940;2023-03-01T07:26:49;-0.40;99.90
32322;DHT22;61553;48.994;8.940;2023-03-01T07:29:15;-0.30;99.90
32322;DHT22;61553;48.994;8.940;2023-03-01T07:31:41;-0.30;99.90
32322;DHT22;61553;48.994;8.940;2023-03-01T07:34:07;-0.20;99.90
32322;DHT22;61553;48.994;8.940;2023-03-01T07:36:33;-0.10;99.90
32322;DHT22;61553;48.994;8.940;2023-03-01T07:38:58;-0.10;99.90
32322;DHT22;61553;48.994;8.940;2023-03-01T07:41:24;0.00;99.90
32322;DHT22;61553;48.994;8.940;2023-03-01T07:43:50;0.10;99.90
32322;DHT22;61553;48.994;8.940;2023-03-01T07:46:16;0.10;99.90
32322;DHT22;61553;48.994;8.940;2023-03-01T07:48:41;0.20;99.90
32322;DHT22;61553;48.994;8.940;2023-03-01T07:51:07;0.30;99.90
32322;DHT22;61553;48.994;8.940;2023-03-01T07:53:33;0.40;99.90
32322;DHT22;61553;48.994;8.940;2023-03-01T07:56:10;0.50;99.90
32322;DHT22;61553;48.994;8.940;2023-03-01T07:58:38;0.50;99.90
32322;DHT22;61553;48.994;8.940;2023-03-01T08:01:05;0.60;99.90
32322;DHT22;61553;48.994;8.940;2023-03-01T08:03:31;1.00;99.90
32322;DHT22;61553;48.994;8.940;2023-03-01T08:06:00;2.10;99.90
32322;DHT22;61553;48.994;8.940;2023-03-01T08:08:26;3.70;99.90
32322;DHT22;61553;48.994;8.940;2023-03-01T08:10:52;4.90;96.70
32322;DHT22;61553;48.994;8.940;2023-03-01T08:13:18;6.40;91.20
32322;DHT22;61553;48.994;8.940;2023-03-01T08:15:48;7.10;84.90
32322;DHT22;61553;48.994;8.940;2023-03-01T08:18:15;8.50;77.00
32322;DHT22;61553;48.994;8.940;2023-03-01T08:20:41;8.80;72.20
32322;DHT22;61553;48.994;8.940;2023-03-01T08:23:07;9.60;68.40
32322;DHT22;61553;48.994;8.940;2023-03-01T08:25:33;10.70;65.40
32322;DHT22;61553;48.994;8.940;2023-03-01T08:27:58;11.00;60.60
32322;DHT22;61553;48.994;8.940;2023-03-01T08:30:24;10.90;59.60
32322;DHT22;61553;48.994;8.940;2023-03-01T08:32:50;11.30;59.30
32322;DHT22;61553;48.994;8.940;2023-03-01T08:35:17;11.30;57.50
32322;DHT22;61553;48.994;8.940;2023-03-01T08:37:42;11.50;56.90
32322;DHT22;61553;48.994;8.940;2023-03-01T08:40:08;11.50;57.00
32322;DHT22;61553;48.994;8.940;2023-03-01T08:42:36;11.00;56.60
32322;DHT22;61553;48.994;8.940;2023-03-01T08:45:02;11.40;55.50
32322;DHT22;61553;48.994;8.940;2023-03-01T08:47:28;11.90;54.70
32322;DHT22;61553;48.994;8.940;2023-03-01T08:49:53;12.50;53.50
32322;DHT22;61553;48.994;8.940;2023-03-01T08:52:20;13.20;52.00
32322;DHT22;61553;48.994;8.940;2023-03-01T08:54:48;13.20;51.70
32322;DHT22;61553;48.994;8.940;2023-03-01T08:57:14;14.00;49.40
32322;DHT22;61553;48.994;8.940;2023-03-01T08:59:40;14.10;48.50
32322;DHT22;61553;48.994;8.940;2023-03-01T09:02:14;13.50;48.80
32322;DHT22;61553;48.994;8.940;2023-03-01T09:04:40;13.20;50.30
32322;DHT22;61553;48.994;8.940;2023-03-01T09:07:07;13.80;49.10
32322;DHT22;61553;48.994;8.940;2023-03-01T09:09:33;13.90;47.80
32322;DHT22;61553;48.994;8.940;2023-03-01T09:11:59;13.60;48.50
32322;DHT22;61553;48.994;8.940;2023-03-01T09:14:25;14.00;48.30
32322;DHT22;61553;48.994;8.940;2023-03-01T09:16:50;13.70;48.10
32322;DHT22;61553;48.994;8.940;2023-03-01T09:19:16;13.90;47.50
32322;DHT22;61553;48.994;8.940;2023-03-01T09:21:42;14.30;46.90
32322;DHT22;61553;48.994;8.940;2023-03-01T09:24:18;15.00;46.00
32322;DHT22;61553;48.994;8.940;2023-03-01T09:26:44;15.20;46.50
32322;DHT22;61553;48.994;8.940;2023-03-01T09:29:11;15.40;44.90
32322;DHT22;61553;48.994;8.940;2023-03-01T09:31:38;15.30;45.20
32322;DHT22;61553;48.994;8.940;2023-03-01T09:34:03;14.90;45.30
32322;DHT22;61553;48.994;8.940;2023-03-01T09:36:29;14.30;46.00
32322;DHT22;61553;48.994;8.940;2023-03-01T09:38:55;14.10;47.00
32322;DHT22;61553;48.994;8.940;2023-03-01T09:46:44;15.80;44.30
32322;DHT22;61553;48.994;8.940;2023-03-01T09:49:22;15.20;45.20
32322;DHT22;61553;48.994;8.940;2023-03-01T09:54:40;16.00;43.00
32322;DHT22;61553;48.994;8.940;2023-03-01T09:57:21;16.30;42.90
32322;DHT22;61553;48.994;8.940;2023-03-01T10:05:33;16.70;42.40
32322;DHT22;61553;48.994;8.940;2023-03-01T10:10:46;16.40;41.80
32322;DHT22;61553;48.994;8.940;2023-03-01T10:15:50;17.30;40.90
32322;DHT22;61553;48.994;8.940;2023-03-01T10:18:22;17.70;41.10
32322;DHT22;61553;48.994;8.940;2023-03-01T10:23:19;18.40;38.80
32322;DHT22;61553;48.994;8.940;2023-03-01T10:31:04;18.70;38.20
32322;DHT22;61553;48.994;8.940;2023-03-01T10:33:36;17.70;38.40
32322;DHT22;61553;48.994;8.940;2023-03-01T10:36:02;17.20;39.70
32322;DHT22;61553;48.994;8.940;2023-03-01T10:38:31;18.20;38.70
32322;DHT22;61553;48.994;8.940;2023-03-01T10:41:06;19.20;37.20
32322;DHT22;61553;48.994;8.940;2023-03-01T10:46:28;17.70;38.50
32322;DHT22;61553;48.994;8.940;2023-03-01T10:51:40;17.30;39.20
32322;DHT22;61553;48.994;8.940;2023-03-01T10:54:23;17.20;39.20
32322;DHT22;61553;48.994;8.940;2023-03-01T10:56:56;16.20;40.70
32322;DHT22;61553;48.994;8.940;2023-03-01T10:59:28;16.80;40.40
32322;DHT22;61553;48.994;8.940;2023-03-01T11:04:29;16.60;40.30
32322;DHT22;61553;48.994;8.940;2023-03-01T11:06:59;17.00;40.30
32322;DHT22;61553;48.994;8.940;2023-03-01T11:09:25;16.30;40.80
32322;DHT22;61553;48.994;8.940;2023-03-01T11:12:00;16.30;41.00
32322;DHT22;61553;48.994;8.940;2023-03-01T11:14:37;15.50;42.30
32322;DHT22;61553;48.994;8.940;2023-03-01T11:17:31;14.40;43.70
32322;DHT22;61553;48.994;8.940;2023-03-01T11:23:42;12.60;46.80
32322;DHT22;61553;48.994;8.940;2023-03-01T11:25:42;11.90;49.00
32322;DHT22;61553;48.994;8.940;2023-03-01T11:28:15;11.30;49.90
32322;DHT22;61553;48.994;8.940;2023-03-01T11:31:07;10.30;52.10
32322;DHT22;61553;48.994;8.940;2023-03-01T11:33:44;9.80;53.60
32322;DHT22;61553;48.994;8.940;2023-03-01T11:36:35;9.50;55.20
32322;DHT22;61553;48.994;8.940;2023-03-01T11:39:25;9.20;55.70
32322;DHT22;61553;48.994;8.940;2023-03-01T11:42:00;8.80;56.20
32322;DHT22;61553;48.994;8.940;2023-03-01T11:44:29;8.70;57.70
32322;DHT22;61553;48.994;8.940;2023-03-01T11:47:19;8.70;57.40
32322;DHT22;61553;48.994;8.940;2023-03-01T11:50:13;8.40;58.40
32322;DHT22;61553;48.994;8.940;2023-03-01T12:06:33;8.20;59.10
32322;DHT22;61553;48.994;8.940;2023-03-01T12:09:24;8.00;59.70
32322;DHT22;61553;48.994;8.940;2023-03-01T12:11:57;7.90;60.20
32322;DHT22;61553;48.994;8.940;2023-03-01T12:14:31;7.90;60.40
32322;DHT22;61553;48.994;8.940;2023-03-01T12:20:37;7.80;60.90
32322;DHT22;61553;48.994;8.940;2023-03-01T12:28:44;7.70;61.20
32322;DHT22;61553;48.994;8.940;2023-03-01T12:31:37;7.70;61.70
32322;DHT22;61553;48.994;8.940;2023-03-01T12:34:25;7.80;61.40
32322;DHT22;61553;48.994;8.940;2023-03-01T12:44:52;7.90;62.30
32322;DHT22;61553;48.994;8.940;2023-03-01T12:50:24;8.00;61.60
32322;DHT22;61553;48.994;8.940;2023-03-01T12:52:57;8.00;62.00
32322;DHT22;61553;48.994;8.940;2023-03-01T12:55:34;8.00;62.40
32322;DHT22;61553;48.994;8.940;2023-03-01T13:11:48;8.00;62.70
32322;DHT22;61553;48.994;8.940;2023-03-01T13:16:46;8.10;62.50
32322;DHT22;61553;48.994;8.940;2023-03-01T13:19:25;8.10;62.60
32322;DHT22;61553;48.994;8.940;2023-03-01T13:21:53;8.20;62.50
32322;DHT22;61553;48.994;8.940;2023-03-01T13:24:41;8.20;62.20
32322;DHT22;61553;48.994;8.940;2023-03-01T13:29:48;8.00;62.60
32322;DHT22;61553;48.994;8.940;2023-03-01T13:37:35;8.20;62.40
32322;DHT22;61553;48.994;8.940;2023-03-01T13:45:48;8.20;61.80
32322;DHT22;61553;48.994;8.940;2023-03-01T13:48:24;8.30;62.20
32322;DHT22;61553;48.994;8.940;2023-03-01T13:50:58;8.20;62.50
32322;DHT22;61553;48.994;8.940;2023-03-01T13:53:29;8.30;62.10
32322;DHT22;61553;48.994;8.940;2023-03-01T13:59:04;8.10;62.60
32322;DHT22;61553;48.994;8.940;2023-03-01T14:01:35;7.90;63.50
32322;DHT22;61553;48.994;8.940;2023-03-01T14:04:02;8.20;63.10
32322;DHT22;61553;48.994;8.940;2023-03-01T14:06:31;8.20;62.50
32322;DHT22;61553;48.994;8.940;2023-03-01T14:20:18;8.50;62.00
32322;DHT22;61553;48.994;8.940;2023-03-01T14:22:45;8.60;61.80
32322;DHT22;61553;48.994;8.940;2023-03-01T14:27:56;8.40;61.80
32322;DHT22;61553;48.994;8.940;2023-03-01T14:30:25;8.40;62.50
32322;DHT22;61553;48.994;8.940;2023-03-01T14:33:00;8.40;62.50
32322;DHT22;61553;48.994;8.940;2023-03-01T14:35:28;8.40;63.00
32322;DHT22;61553;48.994;8.940;2023-03-01T14:37:54;8.30;62.10
32322;DHT22;61553;48.994;8.940;2023-03-01T14:40:26;8.20;62.70
32322;DHT22;61553;48.994;8.940;2023-03-01T14:42:53;8.20;62.40
32322;DHT22;61553;48.994;8.940;2023-03-01T14:45:19;8.20;62.80
32322;DHT22;61553;48.994;8.940;2023-03-01T14:47:45;8.10;63.20
32322;DHT22;61553;48.994;8.940;2023-03-01T14:52:48;8.10;63.30
32322;DHT22;61553;48.994;8.940;2023-03-01T14:55:19;8.10;63.00
32322;DHT22;61553;48.994;8.940;2023-03-01T14:57:48;8.00;63.20
32322;DHT22;61553;48.994;8.940;2023-03-01T15:00:22;8.00;63.10
32322;DHT22;61553;48.994;8.940;2023-03-01T15:02:50;8.00;63.40
32322;DHT22;61553;48.994;8.940;2023-03-01T15:05:51;8.00;63.50
32322;DHT22;61553;48.994;8.940;2023-03-01T15:08:21;8.10;63.80
32322;DHT22;61553;48.994;8.940;2023-03-01T15:13:31;8.00;63.60
32322;DHT22;61553;48.994;8.940;2023-03-01T15:16:12;8.00;63.70
32322;DHT22;61553;48.994;8.940;2023-03-01T15:18:45;8.00;63.60
32322;DHT22;61553;48.994;8.940;2023-03-01T15:21:18;7.90;63.60
32322;DHT22;61553;48.994;8.940;2023-03-01T15:23:48;7.90;63.50
32322;DHT22;61553;48.994;8.940;2023-03-01T15:26:37;7.80;64.10
32322;DHT22;61553;48.994;8.940;2023-03-01T15:29:04;7.80;64.30
32322;DHT22;61553;48.994;8.940;2023-03-01T15:31:42;7.70;64.10
32322;DHT22;61553;48.994;8.940;2023-03-01T15:34:32;7.70;64.60
32322;DHT22;61553;48.994;8.940;2023-03-01T15:37:00;7.80;64.80
32322;DHT22;61553;48.994;8.940;2023-03-01T15:39:36;7.80;64.60
32322;DHT22;61553;48.994;8.940;2023-03-01T15:42:57;7.70;64.70
32322;DHT22;61553;48.994;8.940;2023-03-01T15:45:19;7.60;64.30
32322;DHT22;61553;48.994;8.940;2023-03-01T15:47:51;7.50;64.80
32322;DHT22;61553;48.994;8.940;2023-03-01T15:52:49;7.30;65.10
32322;DHT22;61553;48.994;8.940;2023-03-01T15:55:21;7.20;65.30
32322;DHT22;61553;48.994;8.940;2023-03-01T15:57:48;7.20;65.40
32322;DHT22;61553;48.994;8.940;2023-03-01T16:00:15;7.10;65.20
32322;DHT22;61553;48.994;8.940;2023-03-01T16:02:43;7.00;66.10
32322;DHT22;61553;48.994;8.940;2023-03-01T16:05:24;7.00;66.40
32322;DHT22;61553;48.994;8.940;2023-03-01T16:07:51;7.00;66.50
32322;DHT22;61553;48.994;8.940;2023-03-01T16:10:17;6.90;66.80
32322;DHT22;61553;48.994;8.940;2023-03-01T16:12:43;6.80;66.50
32322;DHT22;61553;48.994;8.940;2023-03-01T16:15:24;6.80;67.00
32322;DHT22;61553;48.994;8.940;2023-03-01T16:17:50;6.70;67.20
32322;DHT22;61553;48.994;8.940;2023-03-01T16:20:17;6.70;67.40
32322;DHT22;61553;48.994;8.940;2023-03-01T16:22:44;6.60;67.40
32322;DHT22;61553;48.994;8.940;2023-03-01T16:25:12;6.50;67.80
32322;DHT22;61553;48.994;8.940;2023-03-01T16:27:38;6.40;67.80
32322;DHT22;61553;48.994;8.940;2023-03-01T16:30:07;6.40;68.10
32322;DHT22;61553;48.994;8.940;2023-03-01T16:32:33;6.30;68.30
32322;DHT22;61553;48.994;8.940;2023-03-01T16:35:02;6.30;69.00
32322;DHT22;61553;48.994;8.940;2023-03-01T16:37:31;6.20;68.80
32322;DHT22;61553;48.994;8.940;2023-03-01T16:39:57;6.10;69.10
32322;DHT22;61553;48.994;8.940;2023-03-01T16:42:23;6.00;69.60
32322;DHT22;61553;48.994;8.940;2023-03-01T16:44:54;6.00;69.60
32322;DHT22;61553;48.994;8.940;2023-03-01T16:47:21;6.00;69.30
32322;DHT22;61553;48.994;8.940;2023-03-01T16:49:46;6.00;70.00
32322;DHT22;61553;48.994;8.940;2023-03-01T16:52:12;5.80;70.30
32322;DHT22;61553;48.994;8.940;2023-03-01T16:54:38;5.80;70.70
32322;DHT22;61553;48.994;8.940;2023-03-01T16:57:04;5.70;71.20
32322;DHT22;61553;48.994;8.940;2023-03-01T16:59:30;5.60;71.50
32322;DHT22;61553;48.994;8.940;2023-03-01T17:01:56;5.50;71.70
32322;DHT22;61553;48.994;8.940;2023-03-01T17:04:21;5.50;71.70
32322;DHT22;61553;48.994;8.940;2023-03-01T17:06:47;5.40;72.30
32322;DHT22;61553;48.994;8.940;2023-03-01T17:09:14;5.30;72.50
32322;DHT22;61553;48.994;8.940;2023-03-01T17:11:39;5.20;72.70
32322;DHT22;61553;48.994;8.940;2023-03-01T17:14:05;5.10;73.70
32322;DHT22;61553;48.994;8.940;2023-03-01T17:16:30;4.90;74.00
32322;DHT22;61553;48.994;8.940;2023-03-01T17:18:56;4.80;74.50
32322;DHT22;61553;48.994;8.940;2023-03-01T17:21:22;4.80;74.90
32322;DHT22;61553;48.994;8.940;2023-03-01T17:23:48;4.80;74.90
32322;DHT22;61553;48.994;8.940;2023-03-01T17:26:15;4.80;75.50
32322;DHT22;61553;48.994;8.940;2023-03-01T17:28:41;4.70;75.70
32322;DHT22;61553;48.994;8.940;2023-03-01T17:31:08;4.70;76.40
32322;DHT22;61553;48.994;8.940;2023-03-01T17:33:34;4.60;76.40
32322;DHT22;61553;48.994;8.940;2023-03-01T17:36:00;4.50;77.00
32322;DHT22;61553;48.994;8.940;2023-03-01T17:38:26;4.50;77.50
32322;DHT22;61553;48.994;8.940;2023-03-01T17:40:52;4.50;77.50
32322;DHT22;61553;48.994;8.940;2023-03-01T17:43:18;4.50;77.90
32322;DHT22;61553;48.994;8.940;2023-03-01T17:45:44;4.40;78.60
32322;DHT22;61553;48.994;8.940;2023-03-01T17:48:14;4.40;78.00
32322;DHT22;61553;48.994;8.940;2023-03-01T17:50:40;4.40;78.30
32322;DHT22;61553;48.994;8.940;2023-03-01T17:53:07;4.40;78.70
32322;DHT22;61553;48.994;8.940;2023-03-01T17:55:38;4.30;78.60
32322;DHT22;61553;48.994;8.940;2023-03-01T17:58:05;4.40;78.50
32322;DHT22;61553;48.994;8.940;2023-03-01T18:00:31;4.50;78.60
32322;DHT22;61553;48.994;8.940;2023-03-01T18:02:57;4.40;78.70
32322;DHT22;61553;48.994;8.940;2023-03-01T18:05:23;4.40;78.80
32322;DHT22;61553;48.994;8.940;2023-03-01T18:07:51;4.40;79.00